Time;durP1;ratioP1;P1;durP2;ratioP2;P2;SDS_P1;SDS_P2;PMS_P1;PMS_P2;Temp;Humidity;BMP_temperature;BMP_pressure;BME280_temperature;BME280_humidity;BME280_pressure;Samples;Min_cycle;Max_cycle;Signal;HPM_P1;HPM_P2
2021/07/18 15:52:37;;;;;;;1.83;1.40;;;27.50;99.90;;;;;;5014341;23;20253;-76
2021/07/18 15:55:05;;;;;;;2.95;1.55;;;27.60;99.10;;;;;;4996518;28;20233;-78
2021/07/18 15:57:32;;;;;;;2.60;1.60;;;27.40;99.90;;;;;;4996856;28;20214;-78
2021/07/18 15:59:58;;;;;;;1.85;1.23;;;27.50;99.90;;;;;;4996624;28;20210;-78
2021/07/18 16:02:25;;;;;;;1.42;1.08;;;27.60;99.40;;;;;;4997078;28;20225;-77
2021/07/18 16:04:52;;;;;;;1.58;1.20;;;27.70;99.90;;;;;;4996715;28;20214;-77
2021/07/18 16:07:19;;;;;;;1.30;1.10;;;27.60;99.90;;;;;;4996365;28;20238;-77
2021/07/18 16:09:47;;;;;;;1.65;1.30;;;27.80;99.90;;;;;;4996873;28;20212;-80
2021/07/18 16:12:13;;;;;;;1.55;1.15;;;27.70;99.60;;;;;;4996868;28;20218;-79
2021/07/18 16:14:40;;;;;;;3.42;1.27;;;27.60;99.20;;;;;;4996787;28;20287;-79
2021/07/18 16:17:07;;;;;;;1.83;1.13;;;27.60;99.10;;;;;;4996739;28;20214;-80
2021/07/18 16:19:34;;;;;;;1.58;1.40;;;27.50;98.80;;;;;;4996303;28;20222;-79
2021/07/18 16:22:00;;;;;;;2.33;1.48;;;27.30;98.80;;;;;;4996726;28;20207;-80
2021/07/18 16:24:27;;;;;;;2.80;1.33;;;27.20;98.10;;;;;;4992392;28;20687;-79
2021/07/18 16:26:55;;;;;;;2.10;1.58;;;27.20;98.80;;;;;;4995655;28;20230;-83
2021/07/18 16:29:22;;;;;;;1.70;1.27;;;27.20;98.60;;;;;;4995851;28;20256;-83
2021/07/18 16:31:49;;;;;;;1.73;1.25;;;27.30;98.90;;;;;;4995891;28;20287;-81
2021/07/18 16:34:16;;;;;;;2.22;1.40;;;27.20;98.50;;;;;;4995784;28;20234;-80
2021/07/18 16:36:43;;;;;;;1.60;1.02;;;27.20;98.70;;;;;;4996150;28;20210;-81
2021/07/18 16:39:10;;;;;;;2.50;1.30;;;27.30;99.00;;;;;;4996088;28;20313;-78
2021/07/18 16:41:37;;;;;;;1.77;1.30;;;27.20;99.00;;;;;;4995755;28;20564;-78
2021/07/18 16:44:06;;;;;;;1.73;1.20;;;27.10;99.20;;;;;;4995499;28;20205;-76
2021/07/18 16:46:34;;;;;;;3.42;1.52;;;27.10;99.70;;;;;;4995565;28;20776;-80
2021/07/18 16:49:00;;;;;;;3.40;1.40;;;27.10;99.70;;;;;;4995751;28;20693;-80
2021/07/18 16:51:27;;;;;;;2.88;1.40;;;27.20;99.90;;;;;;4995404;28;20673;-80
2021/07/18 16:53:54;;;;;;;1.75;1.30;;;27.20;99.70;;;;;;4995318;28;20212;-80
2021/07/18 16:56:21;;;;;;;2.42;1.30;;;27.20;99.90;;;;;;4995727;28;20202;-80
2021/07/18 16:58:48;;;;;;;3.22;1.50;;;27.20;99.90;;;;;;4994855;28;20317;-78
2021/07/18 17:01:16;;;;;;;3.05;1.70;;;27.20;99.40;;;;;;4995561;28;20206;-77
2021/07/18 17:03:43;;;;;;;3.55;1.50;;;27.20;99.90;;;;;;4995384;28;20225;-80
2021/07/18 17:06:11;;;;;;;2.28;1.50;;;27.10;99.90;;;;;;4995722;28;20213;-80
2021/07/18 17:08:38;;;;;;;1.88;1.40;;;27.20;99.90;;;;;;4995039;28;20630;-79
2021/07/18 17:11:07;;;;;;;3.08;1.50;;;27.10;99.90;;;;;;4995375;28;20213;-76
2021/07/18 17:13:33;;;;;;;3.45;1.40;;;27.00;99.90;;;;;;4995006;28;20251;-79
2021/07/18 17:16:01;;;;;;;1.98;1.50;;;26.90;99.90;;;;;;4995352;28;20207;-77
2021/07/18 17:18:29;;;;;;;2.63;1.40;;;27.00;99.90;;;;;;4995261;28;20237;-73
2021/07/18 17:20:56;;;;;;;1.83;1.20;;;26.90;99.90;;;;;;4995466;28;20207;-74
2021/07/18 17:23:22;;;;;;;2.47;1.60;;;26.90;99.90;;;;;;4994982;28;20210;-74
2021/07/18 17:25:49;;;;;;;1.40;1.30;;;26.90;99.90;;;;;;4995141;28;20214;-76
2021/07/18 17:28:16;;;;;;;2.42;1.40;;;26.90;99.90;;;;;;4994905;28;20238;-72
2021/07/18 17:30:43;;;;;;;2.45;1.42;;;26.90;99.90;;;;;;4995409;28;20214;-74
2021/07/18 17:33:10;;;;;;;2.33;1.60;;;26.90;99.90;;;;;;4994953;28;20658;-71
2021/07/18 17:35:38;;;;;;;1.55;1.40;;;26.80;99.90;;;;;;4994924;28;20229;-71
2021/07/18 17:38:05;;;;;;;2.65;1.50;;;26.70;99.90;;;;;;4994671;28;20730;-71
2021/07/18 17:40:32;;;;;;;2.20;1.65;;;26.80;99.90;;;;;;4994883;28;20206;-74
2021/07/18 17:42:59;;;;;;;1.60;1.40;;;26.70;99.90;;;;;;4994984;28;20233;-73
2021/07/18 17:45:26;;;;;;;2.83;1.70;;;26.60;99.90;;;;;;4994896;28;20210;-72
2021/07/18 17:47:52;;;;;;;2.50;1.70;;;26.50;99.90;;;;;;4994738;28;20253;-71
2021/07/18 17:50:19;;;;;;;4.57;2.13;;;26.40;99.90;;;;;;4994314;28;20691;-72
2021/07/18 17:52:47;;;;;;;2.88;1.65;;;26.40;99.90;;;;;;4994695;28;21234;-74
2021/07/18 17:55:14;;;;;;;2.80;1.80;;;26.50;99.90;;;;;;4994821;28;20568;-74
2021/07/18 17:57:41;;;;;;;3.65;2.00;;;26.50;99.90;;;;;;4994379;28;20230;-75
2021/07/18 18:00:10;;;;;;;2.85;1.73;;;26.50;99.90;;;;;;4994644;28;20212;-73
2021/07/18 18:02:38;;;;;;;2.00;1.60;;;26.40;99.90;;;;;;4994547;28;20214;-71
2021/07/18 18:05:06;;;;;;;4.32;1.60;;;26.30;99.90;;;;;;4994436;28;20202;-75
2021/07/18 18:07:33;;;;;;;3.67;1.65;;;26.20;99.90;;;;;;4994204;28;20241;-72
2021/07/18 18:10:01;;;;;;;2.83;1.83;;;26.10;99.90;;;;;;4994472;28;20207;-72
2021/07/18 18:12:28;;;;;;;1.92;1.50;;;26.10;99.90;;;;;;4993921;28;20652;-74
2021/07/18 18:14:54;;;;;;;3.65;1.50;;;26.10;99.90;;;;;;4993926;28;20214;-72
2021/07/18 18:17:21;;;;;;;3.08;1.70;;;26.10;99.90;;;;;;4993842;28;20215;-73
2021/07/18 18:19:48;;;;;;;2.72;1.52;;;25.90;99.90;;;;;;4994423;28;20205;-71
2021/07/18 18:22:15;;;;;;;2.72;1.55;;;25.80;99.90;;;;;;4993930;28;20213;-72
2021/07/18 18:24:44;;;;;;;1.77;1.30;;;25.80;99.90;;;;;;4994107;28;20572;-72
2021/07/18 18:27:12;;;;;;;2.30;1.60;;;25.80;99.90;;;;;;4994169;28;20226;-72
2021/07/18 18:29:39;;;;;;;2.58;1.92;;;25.80;99.90;;;;;;4994083;28;20230;-73
2021/07/18 18:32:07;;;;;;;2.83;2.10;;;25.80;99.90;;;;;;4994019;28;20203;-72
2021/07/18 18:34:34;;;;;;;8.07;4.40;;;25.80;99.90;;;;;;4993766;28;20215;-72
2021/07/18 18:37:00;;;;;;;6.25;3.40;;;25.80;99.90;;;;;;4993759;28;20210;-72
2021/07/18 18:39:27;;;;;;;5.15;2.90;;;25.80;99.90;;;;;;4993643;28;20227;-72
2021/07/18 18:41:54;;;;;;;6.35;2.63;;;25.70;99.90;;;;;;4994141;28;20212;-72
2021/07/18 18:44:23;;;;;;;5.88;2.58;;;25.50;99.90;;;;;;4993722;28;20671;-73
2021/07/18 18:46:50;;;;;;;4.72;1.88;;;25.50;99.90;;;;;;4993636;28;20574;-71
2021/07/18 18:49:16;;;;;;;4.30;1.50;;;25.50;99.90;;;;;;4993698;28;20226;-71
2021/07/18 18:51:44;;;;;;;3.03;1.70;;;25.50;99.90;;;;;;4993358;28;20210;-73
2021/07/18 18:54:10;;;;;;;3.75;1.85;;;25.40;99.90;;;;;;4993443;28;20207;-71
2021/07/18 18:56:41;;;;;;;3.90;1.48;;;25.30;99.90;;;;;;4993824;28;20268;-74
2021/07/18 18:59:10;;;;;;;2.38;1.65;;;25.20;99.90;;;;;;4987056;28;20241;-74
2021/07/18 19:01:39;;;;;;;1.98;1.33;;;25.20;99.90;;;;;;4993849;28;20202;-74
2021/07/18 19:04:06;;;;;;;4.95;2.33;;;25.10;99.90;;;;;;4993576;28;20206;-73
2021/07/18 19:06:35;;;;;;;2.53;1.70;;;25.10;99.90;;;;;;4992886;28;20752;-74
2021/07/18 19:09:02;;;;;;;2.00;1.40;;;25.10;99.90;;;;;;4992649;28;20241;-74
2021/07/18 19:11:29;;;;;;;4.47;2.03;;;25.10;99.90;;;;;;4993245;28;20697;-74
2021/07/18 19:13:56;;;;;;;3.00;1.70;;;25.00;99.90;;;;;;4993036;28;20218;-73
2021/07/18 19:16:23;;;;;;;3.15;1.75;;;24.90;99.90;;;;;;4993124;28;20618;-73
2021/07/18 19:18:51;;;;;;;2.03;1.33;;;24.90;99.90;;;;;;4993034;28;20223;-73
2021/07/18 19:21:18;;;;;;;2.53;1.35;;;24.80;99.90;;;;;;4993510;28;20672;-73
2021/07/18 19:23:45;;;;;;;2.53;1.40;;;24.90;99.90;;;;;;4997054;28;20202;-73
2021/07/18 19:26:12;;;;;;;2.10;1.40;;;24.80;99.90;;;;;;4997554;28;20209;-73
2021/07/18 19:28:39;;;;;;;2.97;1.77;;;24.80;99.90;;;;;;4997114;28;20769;-73
2021/07/18 19:31:06;;;;;;;2.53;1.45;;;24.80;99.90;;;;;;4997001;28;20212;-73
2021/07/18 19:33:33;;;;;;;1.90;1.27;;;24.70;99.90;;;;;;4996720;28;20217;-73
2021/07/18 19:36:01;;;;;;;2.25;1.40;;;24.70;99.90;;;;;;4996993;28;20206;-73
2021/07/18 19:38:28;;;;;;;3.40;1.50;;;24.50;99.90;;;;;;4996950;28;20558;-74
2021/07/18 19:40:55;;;;;;;3.97;1.20;;;24.50;99.90;;;;;;4997024;28;20218;-74
2021/07/18 19:43:22;;;;;;;2.08;1.70;;;24.30;99.90;;;;;;4997291;28;20202;-74
2021/07/18 19:45:49;;;;;;;2.13;1.70;;;24.20;99.90;;;;;;4997025;28;20233;-74
2021/07/18 19:48:16;;;;;;;3.75;1.90;;;24.10;99.90;;;;;;4996922;28;20234;-74
2021/07/18 19:50:43;;;;;;;1.55;1.42;;;24.00;99.90;;;;;;4996897;28;20221;-74
2021/07/18 19:53:11;;;;;;;4.13;1.92;;;23.80;99.90;;;;;;4996818;28;20211;-73
2021/07/18 19:55:38;;;;;;;2.85;1.73;;;23.80;99.90;;;;;;4996979;28;20210;-74
2021/07/18 19:58:04;;;;;;;2.15;1.52;;;23.90;99.90;;;;;;4996846;28;20592;-73
2021/07/18 20:00:31;;;;;;;4.05;1.98;;;24.00;99.90;;;;;;4996623;28;20301;-74
2021/07/18 20:02:58;;;;;;;2.85;1.45;;;24.10;99.90;;;;;;4996990;28;20210;-75
2021/07/18 20:05:25;;;;;;;2.28;1.52;;;23.80;99.90;;;;;;4996589;28;20677;-73
2021/07/18 20:07:52;;;;;;;3.25;1.67;;;23.70;99.90;;;;;;4996431;28;20582;-73
2021/07/18 20:10:21;;;;;;;2.47;1.85;;;23.50;99.90;;;;;;4996615;28;20657;-74
2021/07/18 20:12:49;;;;;;;4.20;1.60;;;23.50;99.90;;;;;;4996596;28;20677;-73
2021/07/18 20:15:16;;;;;;;1.88;1.52;;;23.40;99.90;;;;;;4996628;28;20215;-74
2021/07/18 20:17:43;;;;;;;3.05;1.52;;;23.20;99.90;;;;;;4996329;28;20585;-74
2021/07/18 20:20:12;;;;;;;1.73;1.42;;;23.00;99.90;;;;;;4996600;28;20210;-74
2021/07/18 20:22:39;;;;;;;2.22;1.75;;;23.00;99.90;;;;;;4996390;28;20572;-74
2021/07/18 20:25:07;;;;;;;3.15;1.52;;;23.00;99.90;;;;;;4996304;28;20665;-74
2021/07/18 20:27:35;;;;;;;2.83;1.77;;;23.00;99.90;;;;;;4996331;28;20226;-74
2021/07/18 20:30:03;;;;;;;1.90;1.55;;;23.00;99.90;;;;;;4996126;28;20700;-73
2021/07/18 20:32:30;;;;;;;2.25;1.63;;;23.10;99.90;;;;;;4996084;28;20215;-74
2021/07/18 20:34:57;;;;;;;4.43;1.50;;;23.10;99.90;;;;;;4995449;28;20565;-75
2021/07/18 20:37:23;;;;;;;4.15;1.70;;;22.90;99.90;;;;;;4996076;28;20213;-74
2021/07/18 20:39:50;;;;;;;2.50;1.42;;;22.90;99.90;;;;;;4995988;28;20220;-74
2021/07/18 20:42:18;;;;;;;2.03;1.58;;;22.90;99.90;;;;;;4996064;28;20207;-74
2021/07/18 20:44:47;;;;;;;2.35;1.45;;;22.70;99.90;;;;;;4996349;28;20210;-73
2021/07/18 20:47:13;;;;;;;2.65;1.60;;;22.60;99.90;;;;;;4996177;28;20210;-74
2021/07/18 20:49:42;;;;;;;2.10;1.60;;;22.60;99.90;;;;;;4996001;28;20573;-74
2021/07/18 20:52:09;;;;;;;2.10;1.48;;;22.50;99.90;;;;;;4995884;28;20269;-74
2021/07/18 20:54:36;;;;;;;2.95;1.92;;;22.40;99.90;;;;;;4995750;28;20221;-74
2021/07/18 20:57:03;;;;;;;2.03;1.65;;;22.30;99.90;;;;;;4995666;28;20211;-74
2021/07/18 20:59:30;;;;;;;2.40;1.40;;;22.30;99.90;;;;;;4995770;28;20230;-74
2021/07/18 21:01:58;;;;;;;2.40;1.80;;;22.30;99.90;;;;;;4995688;28;20217;-75
2021/07/18 21:04:25;;;;;;;2.88;1.67;;;22.10;99.90;;;;;;4995898;28;20213;-75
2021/07/18 21:06:52;;;;;;;2.08;1.60;;;22.10;99.90;;;;;;4995624;28;20566;-74
2021/07/18 21:09:19;;;;;;;2.83;1.80;;;22.20;99.90;;;;;;4995390;28;20249;-74
2021/07/18 21:11:45;;;;;;;2.45;1.73;;;22.20;99.90;;;;;;4995834;28;20210;-75
2021/07/18 21:14:12;;;;;;;1.90;1.45;;;22.10;99.90;;;;;;4995541;28;20707;-74
2021/07/18 21:16:39;;;;;;;2.25;1.50;;;22.00;99.90;;;;;;4995619;28;20206;-74
2021/07/18 21:19:07;;;;;;;3.85;1.95;;;21.90;99.90;;;;;;4995301;28;20230;-75
2021/07/18 21:21:34;;;;;;;2.53;1.70;;;21.70;99.90;;;;;;4995136;28;20764;-74
2021/07/18 21:24:01;;;;;;;2.63;1.63;;;21.70;99.90;;;;;;4994925;28;20207;-73
2021/07/18 21:26:29;;;;;;;2.55;1.83;;;21.60;99.90;;;;;;4995362;28;20660;-75
2021/07/18 21:28:55;;;;;;;1.92;1.33;;;21.50;99.90;;;;;;4995338;28;20242;-74
2021/07/18 21:31:22;;;;;;;2.10;1.50;;;21.50;99.90;;;;;;4995351;28;20233;-75
